sensor_id;sensor_type;location;lat;lon;timestamp;P1;durP1;ratioP1;P2;durP2;ratioP2
24279;SDS011;12395;42.808;23.408;2023-02-23T00:01:57;7.88;;;3.95;;
24279;SDS011;12395;42.808;23.408;2023-02-23T00:04:29;8.13;;;4.40;;
24279;SDS011;12395;42.808;23.408;2023-02-23T00:06:54;9.70;;;4.85;;
24279;SDS011;12395;42.808;23.408;2023-02-23T00:09:20;7.97;;;4.28;;
24279;SDS011;12395;42.808;23.408;2023-02-23T00:11:49;7.60;;;4.25;;
24279;SDS011;12395;42.808;23.408;2023-02-23T00:16:42;8.70;;;4.78;;
24279;SDS011;12395;42.808;23.408;2023-02-23T00:19:09;12.20;;;5.15;;
24279;SDS011;12395;42.808;23.408;2023-02-23T00:21:37;8.30;;;4.63;;
24279;SDS011;12395;42.808;23.408;2023-02-23T00:24:05;9.47;;;4.80;;
24279;SDS011;12395;42.808;23.408;2023-02-23T00:26:35;9.52;;;5.40;;
24279;SDS011;12395;42.808;23.408;2023-02-23T00:29:04;8.77;;;4.90;;
24279;SDS011;12395;42.808;23.408;2023-02-23T00:31:31;8.13;;;4.55;;
24279;SDS011;12395;42.808;23.408;2023-02-23T00:33:58;9.48;;;4.70;;
24279;SDS011;12395;42.808;23.408;2023-02-23T00:36:26;10.47;;;5.80;;
24279;SDS011;12395;42.808;23.408;2023-02-23T00:38:57;10.27;;;5.20;;
24279;SDS011;12395;42.808;23.408;2023-02-23T00:41:24;9.77;;;5.15;;
24279;SDS011;12395;42.808;23.408;2023-02-23T00:43:53;8.77;;;5.03;;
24279;SDS011;12395;42.808;23.408;2023-02-23T00:46:23;8.43;;;4.22;;
24279;SDS011;12395;42.808;23.408;2023-02-23T00:48:54;7.88;;;4.35;;
24279;SDS011;12395;42.808;23.408;2023-02-23T00:51:21;9.02;;;4.50;;
24279;SDS011;12395;42.808;23.408;2023-02-23T00:53:54;8.33;;;4.90;;
24279;SDS011;12395;42.808;23.408;2023-02-23T00:56:20;9.17;;;4.80;;
24279;SDS011;12395;42.808;23.408;2023-02-23T00:58:46;7.60;;;4.40;;
24279;SDS011;12395;42.808;23.408;2023-02-23T01:01:12;8.33;;;4.33;;
24279;SDS011;12395;42.808;23.408;2023-02-23T01:03:38;8.40;;;4.53;;
24279;SDS011;12395;42.808;23.408;2023-02-23T01:06:06;9.33;;;4.53;;
24279;SDS011;12395;42.808;23.408;2023-02-23T01:11:13;9.00;;;4.50;;
24279;SDS011;12395;42.808;23.408;2023-02-23T01:13:41;10.73;;;4.90;;
24279;SDS011;12395;42.808;23.408;2023-02-23T01:16:13;8.83;;;4.73;;
24279;SDS011;12395;42.808;23.408;2023-02-23T01:18:40;9.93;;;5.30;;
24279;SDS011;12395;42.808;23.408;2023-02-23T01:21:19;10.23;;;5.05;;
24279;SDS011;12395;42.808;23.408;2023-02-23T01:23:46;9.68;;;5.47;;
24279;SDS011;12395;42.808;23.408;2023-02-23T01:26:16;9.35;;;5.45;;
24279;SDS011;12395;42.808;23.408;2023-02-23T01:28:43;9.48;;;5.53;;
24279;SDS011;12395;42.808;23.408;2023-02-23T01:31:12;9.77;;;5.43;;
24279;SDS011;12395;42.808;23.408;2023-02-23T01:33:39;10.90;;;6.50;;
24279;SDS011;12395;42.808;23.408;2023-02-23T01:36:05;11.07;;;5.33;;
24279;SDS011;12395;42.808;23.408;2023-02-23T01:38:31;11.37;;;5.60;;
24279;SDS011;12395;42.808;23.408;2023-02-23T01:40:56;11.03;;;5.57;;
24279;SDS011;12395;42.808;23.408;2023-02-23T01:43:22;11.18;;;5.93;;
24279;SDS011;12395;42.808;23.408;2023-02-23T01:45:54;10.60;;;6.17;;
24279;SDS011;12395;42.808;23.408;2023-02-23T01:48:23;9.43;;;5.47;;
24279;SDS011;12395;42.808;23.408;2023-02-23T01:50:56;15.30;;;7.63;;
24279;SDS011;12395;42.808;23.408;2023-02-23T01:53:26;13.23;;;7.20;;
24279;SDS011;12395;42.808;23.408;2023-02-23T01:55:55;12.10;;;6.13;;
24279;SDS011;12395;42.808;23.408;2023-02-23T01:58:23;12.20;;;6.83;;
24279;SDS011;12395;42.808;23.408;2023-02-23T02:00:53;11.13;;;6.53;;
24279;SDS011;12395;42.808;23.408;2023-02-23T02:03:30;11.13;;;6.30;;
24279;SDS011;12395;42.808;23.408;2023-02-23T02:06:00;11.67;;;6.40;;
24279;SDS011;12395;42.808;23.408;2023-02-23T02:08:31;9.80;;;5.70;;
24279;SDS011;12395;42.808;23.408;2023-02-23T02:10:59;11.90;;;5.67;;
24279;SDS011;12395;42.808;23.408;2023-02-23T02:13:29;9.40;;;4.80;;
24279;SDS011;12395;42.808;23.408;2023-02-23T02:18:42;10.47;;;5.20;;
24279;SDS011;12395;42.808;23.408;2023-02-23T02:21:22;9.63;;;5.60;;
24279;SDS011;12395;42.808;23.408;2023-02-23T02:24:24;12.50;;;6.23;;
24279;SDS011;12395;42.808;23.408;2023-02-23T02:27:08;10.10;;;5.70;;
24279;SDS011;12395;42.808;23.408;2023-02-23T02:38:36;10.30;;;5.03;;
24279;SDS011;12395;42.808;23.408;2023-02-23T02:47:04;13.70;;;7.47;;
24279;SDS011;12395;42.808;23.408;2023-02-23T02:49:49;14.40;;;8.07;;
24279;SDS011;12395;42.808;23.408;2023-02-23T02:52:21;12.53;;;6.50;;
24279;SDS011;12395;42.808;23.408;2023-02-23T02:54:59;13.57;;;6.83;;
24279;SDS011;12395;42.808;23.408;2023-02-23T02:57:33;12.13;;;7.40;;
24279;SDS011;12395;42.808;23.408;2023-02-23T02:59:59;14.70;;;8.70;;
24279;SDS011;12395;42.808;23.408;2023-02-23T03:02:43;14.13;;;8.37;;
24279;SDS011;12395;42.808;23.408;2023-02-23T03:05:35;14.67;;;8.20;;
24279;SDS011;12395;42.808;23.408;2023-02-23T03:08:31;14.40;;;8.50;;
24279;SDS011;12395;42.808;23.408;2023-02-23T03:11:17;15.33;;;8.10;;
24279;SDS011;12395;42.808;23.408;2023-02-23T03:29:08;14.60;;;7.90;;
24279;SDS011;12395;42.808;23.408;2023-02-23T03:32:09;16.50;;;8.30;;
24279;SDS011;12395;42.808;23.408;2023-02-23T03:35:24;18.20;;;8.47;;
24279;SDS011;12395;42.808;23.408;2023-02-23T03:38:17;14.40;;;8.07;;
24279;SDS011;12395;42.808;23.408;2023-02-23T03:41:05;15.97;;;8.70;;
24279;SDS011;12395;42.808;23.408;2023-02-23T03:43:55;15.10;;;8.80;;
24279;SDS011;12395;42.808;23.408;2023-02-23T03:46:43;17.30;;;9.43;;
24279;SDS011;12395;42.808;23.408;2023-02-23T03:49:31;19.93;;;9.43;;
24279;SDS011;12395;42.808;23.408;2023-02-23T03:55:11;16.43;;;9.03;;
24279;SDS011;12395;42.808;23.408;2023-02-23T03:58:01;17.47;;;9.33;;
24279;SDS011;12395;42.808;23.408;2023-02-23T04:00:49;16.65;;;9.15;;
24279;SDS011;12395;42.808;23.408;2023-02-23T04:03:36;16.80;;;9.70;;
24279;SDS011;12395;42.808;23.408;2023-02-23T04:06:25;15.50;;;8.53;;
24279;SDS011;12395;42.808;23.408;2023-02-23T04:09:14;15.47;;;8.80;;
24279;SDS011;12395;42.808;23.408;2023-02-23T04:17:58;19.30;;;9.90;;
24279;SDS011;12395;42.808;23.408;2023-02-23T04:20:24;14.80;;;8.90;;
24279;SDS011;12395;42.808;23.408;2023-02-23T04:22:50;13.57;;;8.67;;
24279;SDS011;12395;42.808;23.408;2023-02-23T04:25:15;17.20;;;9.90;;
24279;SDS011;12395;42.808;23.408;2023-02-23T04:27:43;19.83;;;11.20;;
24279;SDS011;12395;42.808;23.408;2023-02-23T04:30:09;24.53;;;13.03;;
24279;SDS011;12395;42.808;23.408;2023-02-23T04:32:35;22.80;;;12.47;;
24279;SDS011;12395;42.808;23.408;2023-02-23T04:35:01;20.10;;;11.60;;
24279;SDS011;12395;42.808;23.408;2023-02-23T04:37:26;18.93;;;10.47;;
24279;SDS011;12395;42.808;23.408;2023-02-23T04:39:51;16.23;;;8.93;;
24279;SDS011;12395;42.808;23.408;2023-02-23T04:42:17;16.43;;;9.03;;
24279;SDS011;12395;42.808;23.408;2023-02-23T04:44:42;16.47;;;9.80;;
24279;SDS011;12395;42.808;23.408;2023-02-23T04:47:08;16.80;;;9.40;;
24279;SDS011;12395;42.808;23.408;2023-02-23T04:49:34;16.30;;;9.33;;
24279;SDS011;12395;42.808;23.408;2023-02-23T04:51:59;16.90;;;9.50;;
24279;SDS011;12395;42.808;23.408;2023-02-23T04:54:24;16.13;;;9.17;;
24279;SDS011;12395;42.808;23.408;2023-02-23T04:56:50;16.23;;;8.30;;
24279;SDS011;12395;42.808;23.408;2023-02-23T04:59:16;16.87;;;9.53;;
24279;SDS011;12395;42.808;23.408;2023-02-23T05:01:42;19.40;;;10.40;;
24279;SDS011;12395;42.808;23.408;2023-02-23T05:04:07;19.73;;;10.50;;
24279;SDS011;12395;42.808;23.408;2023-02-23T05:06:33;20.13;;;11.27;;
24279;SDS011;12395;42.808;23.408;2023-02-23T05:08:58;22.03;;;11.97;;
24279;SDS011;12395;42.808;23.408;2023-02-23T05:11:24;21.70;;;11.27;;
24279;SDS011;12395;42.808;23.408;2023-02-23T05:13:51;20.35;;;11.43;;
24279;SDS011;12395;42.808;23.408;2023-02-23T05:16:17;19.67;;;10.57;;
24279;SDS011;12395;42.808;23.408;2023-02-23T05:18:42;20.13;;;10.70;;
24279;SDS011;12395;42.808;23.408;2023-02-23T05:21:07;20.97;;;11.67;;
24279;SDS011;12395;42.808;23.408;2023-02-23T05:23:33;19.60;;;10.80;;
24279;SDS011;12395;42.808;23.408;2023-02-23T05:26:03;18.87;;;10.27;;
24279;SDS011;12395;42.808;23.408;2023-02-23T05:28:34;20.43;;;11.40;;
24279;SDS011;12395;42.808;23.408;2023-02-23T05:31:01;22.67;;;10.97;;
24279;SDS011;12395;42.808;23.408;2023-02-23T05:33:33;22.67;;;11.60;;
24279;SDS011;12395;42.808;23.408;2023-02-23T05:36:06;22.17;;;12.10;;
24279;SDS011;12395;42.808;23.408;2023-02-23T05:38:42;23.27;;;12.70;;
24279;SDS011;12395;42.808;23.408;2023-02-23T05:41:11;25.93;;;13.33;;
24279;SDS011;12395;42.808;23.408;2023-02-23T05:43:38;22.70;;;11.87;;
24279;SDS011;12395;42.808;23.408;2023-02-23T05:46:07;20.73;;;11.43;;
24279;SDS011;12395;42.808;23.408;2023-02-23T05:48:33;20.60;;;11.23;;
24279;SDS011;12395;42.808;23.408;2023-02-23T05:51:05;21.83;;;11.93;;
24279;SDS011;12395;42.808;23.408;2023-02-23T05:53:33;19.17;;;11.03;;
24279;SDS011;12395;42.808;23.408;2023-02-23T05:56:03;20.37;;;11.23;;
24279;SDS011;12395;42.808;23.408;2023-02-23T05:58:29;18.20;;;10.57;;
24279;SDS011;12395;42.808;23.408;2023-02-23T06:00:55;19.60;;;10.63;;
24279;SDS011;12395;42.808;23.408;2023-02-23T06:03:21;19.07;;;10.53;;
24279;SDS011;12395;42.808;23.408;2023-02-23T06:05:50;21.33;;;10.90;;
24279;SDS011;12395;42.808;23.408;2023-02-23T06:08:18;21.20;;;11.13;;
24279;SDS011;12395;42.808;23.408;2023-02-23T06:10:44;20.00;;;11.27;;
24279;SDS011;12395;42.808;23.408;2023-02-23T06:13:10;21.33;;;11.30;;
24279;SDS011;12395;42.808;23.408;2023-02-23T06:15:36;21.67;;;11.60;;
24279;SDS011;12395;42.808;23.408;2023-02-23T06:18:01;19.23;;;11.83;;
24279;SDS011;12395;42.808;23.408;2023-02-23T06:20:27;22.00;;;12.90;;
24279;SDS011;12395;42.808;23.408;2023-02-23T06:22:53;22.20;;;13.40;;
24279;SDS011;12395;42.808;23.408;2023-02-23T06:25:19;19.37;;;12.60;;
24279;SDS011;12395;42.808;23.408;2023-02-23T06:27:44;21.67;;;12.90;;
24279;SDS011;12395;42.808;23.408;2023-02-23T06:30:09;22.43;;;13.10;;
24279;SDS011;12395;42.808;23.408;2023-02-23T06:32:36;21.30;;;12.60;;
24279;SDS011;12395;42.808;23.408;2023-02-23T06:35:02;24.97;;;14.07;;
24279;SDS011;12395;42.808;23.408;2023-02-23T06:39:55;24.27;;;12.93;;
24279;SDS011;12395;42.808;23.408;2023-02-23T06:42:20;23.53;;;13.80;;
24279;SDS011;12395;42.808;23.408;2023-02-23T06:44:46;21.17;;;13.13;;
24279;SDS011;12395;42.808;23.408;2023-02-23T06:47:11;20.60;;;12.20;;
24279;SDS011;12395;42.808;23.408;2023-02-23T06:49:37;19.97;;;11.67;;
24279;SDS011;12395;42.808;23.408;2023-02-23T06:52:04;20.55;;;12.82;;
24279;SDS011;12395;42.808;23.408;2023-02-23T06:54:30;19.98;;;11.95;;
24279;SDS011;12395;42.808;23.408;2023-02-23T06:56:58;22.05;;;11.60;;
24279;SDS011;12395;42.808;23.408;2023-02-23T06:59:24;32.13;;;16.17;;
24279;SDS011;12395;42.808;23.408;2023-02-23T07:01:49;34.28;;;16.92;;
24279;SDS011;12395;42.808;23.408;2023-02-23T07:04:14;26.48;;;14.07;;
24279;SDS011;12395;42.808;23.408;2023-02-23T07:06:40;24.08;;;13.75;;
24279;SDS011;12395;42.808;23.408;2023-02-23T07:09:05;27.40;;;17.45;;
24279;SDS011;12395;42.808;23.408;2023-02-23T07:11:31;33.22;;;20.17;;
24279;SDS011;12395;42.808;23.408;2023-02-23T07:13:57;47.35;;;30.23;;
24279;SDS011;12395;42.808;23.408;2023-02-23T07:16:23;76.93;;;47.33;;
24279;SDS011;12395;42.808;23.408;2023-02-23T07:18:49;50.72;;;31.20;;
24279;SDS011;12395;42.808;23.408;2023-02-23T07:21:14;46.53;;;27.30;;
24279;SDS011;12395;42.808;23.408;2023-02-23T07:23:40;37.72;;;23.42;;
24279;SDS011;12395;42.808;23.408;2023-02-23T07:26:05;34.03;;;19.95;;
24279;SDS011;12395;42.808;23.408;2023-02-23T07:28:31;31.65;;;18.38;;
24279;SDS011;12395;42.808;23.408;2023-02-23T07:30:57;29.60;;;18.08;;
24279;SDS011;12395;42.808;23.408;2023-02-23T07:33:23;29.50;;;17.20;;
24279;SDS011;12395;42.808;23.408;2023-02-23T07:35:49;29.48;;;18.38;;
24279;SDS011;12395;42.808;23.408;2023-02-23T07:38:15;31.15;;;17.52;;
24279;SDS011;12395;42.808;23.408;2023-02-23T07:40:41;32.97;;;18.02;;
24279;SDS011;12395;42.808;23.408;2023-02-23T07:43:06;30.90;;;17.30;;
24279;SDS011;12395;42.808;23.408;2023-02-23T07:45:32;30.20;;;17.25;;
24279;SDS011;12395;42.808;23.408;2023-02-23T07:47:57;28.88;;;16.55;;
24279;SDS011;12395;42.808;23.408;2023-02-23T07:50:24;27.45;;;16.02;;
24279;SDS011;12395;42.808;23.408;2023-02-23T07:52:50;31.20;;;17.00;;
24279;SDS011;12395;42.808;23.408;2023-02-23T07:55:16;29.17;;;17.10;;
24279;SDS011;12395;42.808;23.408;2023-02-23T07:57:42;39.80;;;22.25;;
24279;SDS011;12395;42.808;23.408;2023-02-23T08:00:07;31.63;;;17.63;;
24279;SDS011;12395;42.808;23.408;2023-02-23T08:02:33;34.53;;;20.60;;
24279;SDS011;12395;42.808;23.408;2023-02-23T08:04:59;26.35;;;14.98;;
24279;SDS011;12395;42.808;23.408;2023-02-23T08:07:24;27.60;;;16.67;;
24279;SDS011;12395;42.808;23.408;2023-02-23T08:13:07;32.13;;;17.63;;
24279;SDS011;12395;42.808;23.408;2023-02-23T08:15:33;28.88;;;16.85;;
24279;SDS011;12395;42.808;23.408;2023-02-23T08:17:58;33.85;;;17.33;;
24279;SDS011;12395;42.808;23.408;2023-02-23T08:20:24;30.63;;;16.83;;
24279;SDS011;12395;42.808;23.408;2023-02-23T08:22:53;29.30;;;15.10;;
24279;SDS011;12395;42.808;23.408;2023-02-23T08:25:19;40.55;;;23.50;;
24279;SDS011;12395;42.808;23.408;2023-02-23T08:27:45;30.13;;;17.42;;
24279;SDS011;12395;42.808;23.408;2023-02-23T08:30:11;27.20;;;15.77;;
24279;SDS011;12395;42.808;23.408;2023-02-23T08:32:38;26.35;;;15.50;;
24279;SDS011;12395;42.808;23.408;2023-02-23T08:35:04;27.50;;;14.80;;
24279;SDS011;12395;42.808;23.408;2023-02-23T08:37:31;28.08;;;14.07;;
24279;SDS011;12395;42.808;23.408;2023-02-23T08:39:57;27.65;;;14.88;;
24279;SDS011;12395;42.808;23.408;2023-02-23T08:42:24;33.53;;;16.25;;
24279;SDS011;12395;42.808;23.408;2023-02-23T08:44:49;28.90;;;14.88;;
24279;SDS011;12395;42.808;23.408;2023-02-23T08:47:15;23.83;;;13.10;;
24279;SDS011;12395;42.808;23.408;2023-02-23T08:49:48;24.02;;;13.40;;
24279;SDS011;12395;42.808;23.408;2023-02-23T08:52:14;22.23;;;12.77;;
24279;SDS011;12395;42.808;23.408;2023-02-23T08:54:39;27.23;;;14.45;;
24279;SDS011;12395;42.808;23.408;2023-02-23T08:57:05;26.75;;;13.63;;
24279;SDS011;12395;42.808;23.408;2023-02-23T08:59:31;23.75;;;12.75;;
24279;SDS011;12395;42.808;23.408;2023-02-23T09:01:56;22.48;;;12.13;;
24279;SDS011;12395;42.808;23.408;2023-02-23T09:04:22;21.00;;;11.93;;
24279;SDS011;12395;42.808;23.408;2023-02-23T09:06:47;26.35;;;14.55;;
24279;SDS011;12395;42.808;23.408;2023-02-23T09:09:14;23.57;;;12.67;;
24279;SDS011;12395;42.808;23.408;2023-02-23T09:11:40;21.02;;;12.02;;
24279;SDS011;12395;42.808;23.408;2023-02-23T09:14:06;20.00;;;11.95;;
24279;SDS011;12395;42.808;23.408;2023-02-23T09:16:32;23.05;;;12.15;;
24279;SDS011;12395;42.808;23.408;2023-02-23T09:18:59;23.67;;;11.25;;
24279;SDS011;12395;42.808;23.408;2023-02-23T09:21:25;20.60;;;12.15;;
24279;SDS011;12395;42.808;23.408;2023-02-23T09:23:53;20.17;;;10.23;;
24279;SDS011;12395;42.808;23.408;2023-02-23T09:26:20;18.80;;;11.07;;
24279;SDS011;12395;42.808;23.408;2023-02-23T09:28:47;18.13;;;11.13;;
24279;SDS011;12395;42.808;23.408;2023-02-23T09:31:14;19.60;;;11.02;;
24279;SDS011;12395;42.808;23.408;2023-02-23T09:33:41;17.48;;;10.48;;
24279;SDS011;12395;42.808;23.408;2023-02-23T09:36:11;18.85;;;10.07;;
24279;SDS011;12395;42.808;23.408;2023-02-23T09:38:43;17.63;;;9.82;;
24279;SDS011;12395;42.808;23.408;2023-02-23T09:41:26;16.85;;;10.48;;
24279;SDS011;12395;42.808;23.408;2023-02-23T09:49:49;17.65;;;10.10;;
24279;SDS011;12395;42.808;23.408;2023-02-23T09:52:17;16.40;;;9.55;;
24279;SDS011;12395;42.808;23.408;2023-02-23T09:54:46;19.20;;;10.40;;
24279;SDS011;12395;42.808;23.408;2023-02-23T09:57:13;16.42;;;9.60;;
24279;SDS011;12395;42.808;23.408;2023-02-23T09:59:42;16.27;;;9.65;;
24279;SDS011;12395;42.808;23.408;2023-02-23T10:07:25;15.38;;;8.93;;
24279;SDS011;12395;42.808;23.408;2023-02-23T10:09:57;14.32;;;7.60;;
24279;SDS011;12395;42.808;23.408;2023-02-23T10:23:33;14.90;;;7.78;;
24279;SDS011;12395;42.808;23.408;2023-02-23T10:26:04;13.57;;;7.55;;
24279;SDS011;12395;42.808;23.408;2023-02-23T10:28:34;14.60;;;7.90;;
24279;SDS011;12395;42.808;23.408;2023-02-23T10:31:01;15.05;;;8.43;;
24279;SDS011;12395;42.808;23.408;2023-02-23T10:36:25;16.50;;;8.43;;
24279;SDS011;12395;42.808;23.408;2023-02-23T10:38:57;14.45;;;8.32;;
24279;SDS011;12395;42.808;23.408;2023-02-23T10:41:23;12.27;;;7.57;;
24279;SDS011;12395;42.808;23.408;2023-02-23T10:43:48;14.10;;;7.43;;
24279;SDS011;12395;42.808;23.408;2023-02-23T10:46:18;14.85;;;7.60;;
24279;SDS011;12395;42.808;23.408;2023-02-23T10:48:47;14.40;;;8.10;;
24279;SDS011;12395;42.808;23.408;2023-02-23T10:53:51;14.60;;;7.50;;
24279;SDS011;12395;42.808;23.408;2023-02-23T10:56:17;13.40;;;6.82;;
24279;SDS011;12395;42.808;23.408;2023-02-23T10:58:48;14.95;;;7.03;;
24279;SDS011;12395;42.808;23.408;2023-02-23T11:01:37;11.57;;;6.82;;
24279;SDS011;12395;42.808;23.408;2023-02-23T11:04:20;11.13;;;6.35;;
24279;SDS011;12395;42.808;23.408;2023-02-23T11:06:48;13.00;;;6.38;;
24279;SDS011;12395;42.808;23.408;2023-02-23T11:12:01;12.15;;;6.63;;
24279;SDS011;12395;42.808;23.408;2023-02-23T11:14:30;14.13;;;6.82;;
24279;SDS011;12395;42.808;23.408;2023-02-23T11:16:57;11.05;;;5.40;;
24279;SDS011;12395;42.808;23.408;2023-02-23T11:22:01;10.70;;;6.00;;
24279;SDS011;12395;42.808;23.408;2023-02-23T11:24:33;9.30;;;5.22;;
24279;SDS011;12395;42.808;23.408;2023-02-23T11:27:02;11.52;;;5.63;;
24279;SDS011;12395;42.808;23.408;2023-02-23T11:32:14;9.48;;;5.60;;
24279;SDS011;12395;42.808;23.408;2023-02-23T11:34:43;9.65;;;5.43;;
24279;SDS011;12395;42.808;23.408;2023-02-23T11:39:54;8.57;;;5.03;;
24279;SDS011;12395;42.808;23.408;2023-02-23T11:42:22;7.55;;;4.63;;
24279;SDS011;12395;42.808;23.408;2023-02-23T11:44:51;8.50;;;4.78;;
24279;SDS011;12395;42.808;23.408;2023-02-23T11:47:27;9.50;;;5.05;;
24279;SDS011;12395;42.808;23.408;2023-02-23T11:52:21;9.80;;;4.85;;
24279;SDS011;12395;42.808;23.408;2023-02-23T11:57:27;11.55;;;5.07;;
24279;SDS011;12395;42.808;23.408;2023-02-23T11:59:56;9.48;;;4.45;;
24279;SDS011;12395;42.808;23.408;2023-02-23T12:02:24;7.90;;;4.97;;
24279;SDS011;12395;42.808;23.408;2023-02-23T12:04:59;7.68;;;4.55;;
24279;SDS011;12395;42.808;23.408;2023-02-23T12:07:35;10.88;;;4.43;;
24279;SDS011;12395;42.808;23.408;2023-02-23T12:18:02;7.30;;;4.20;;
24279;SDS011;12395;42.808;23.408;2023-02-23T12:20:48;6.15;;;4.18;;
24279;SDS011;12395;42.808;23.408;2023-02-23T12:23:19;8.07;;;3.88;;
24279;SDS011;12395;42.808;23.408;2023-02-23T12:25:55;7.45;;;3.95;;
24279;SDS011;12395;42.808;23.408;2023-02-23T12:28:26;8.82;;;4.03;;
24279;SDS011;12395;42.808;23.408;2023-02-23T12:31:54;9.88;;;4.28;;
24279;SDS011;12395;42.808;23.408;2023-02-23T12:34:17;7.13;;;4.18;;
24279;SDS011;12395;42.808;23.408;2023-02-23T12:37:00;6.30;;;4.30;;
24279;SDS011;12395;42.808;23.408;2023-02-23T12:39:37;10.15;;;4.13;;
24279;SDS011;12395;42.808;23.408;2023-02-23T12:47:38;8.25;;;4.40;;
24279;SDS011;12395;42.808;23.408;2023-02-23T13:04:28;7.47;;;3.78;;
24279;SDS011;12395;42.808;23.408;2023-02-23T13:18:28;6.30;;;3.60;;
24279;SDS011;12395;42.808;23.408;2023-02-23T13:26:19;6.75;;;3.90;;
24279;SDS011;12395;42.808;23.408;2023-02-23T13:29:02;8.05;;;3.65;;
24279;SDS011;12395;42.808;23.408;2023-02-23T13:31:36;8.18;;;3.88;;
24279;SDS011;12395;42.808;23.408;2023-02-23T13:34:04;5.65;;;3.83;;
24279;SDS011;12395;42.808;23.408;2023-02-23T13:36:35;7.25;;;4.25;;
24279;SDS011;12395;42.808;23.408;2023-02-23T13:39:24;7.60;;;4.03;;
24279;SDS011;12395;42.808;23.408;2023-02-23T13:54:03;7.70;;;4.55;;
24279;SDS011;12395;42.808;23.408;2023-02-23T13:56:33;8.40;;;4.68;;
24279;SDS011;12395;42.808;23.408;2023-02-23T13:59:08;8.95;;;5.10;;
24279;SDS011;12395;42.808;23.408;2023-02-23T14:01:45;9.93;;;5.63;;
24279;SDS011;12395;42.808;23.408;2023-02-23T14:04:14;9.60;;;5.10;;
24279;SDS011;12395;42.808;23.408;2023-02-23T14:06:50;8.60;;;5.22;;
24279;SDS011;12395;42.808;23.408;2023-02-23T14:12:32;9.70;;;5.50;;
24279;SDS011;12395;42.808;23.408;2023-02-23T14:15:39;10.05;;;5.68;;
24279;SDS011;12395;42.808;23.408;2023-02-23T14:17:57;10.43;;;5.40;;
24279;SDS011;12395;42.808;23.408;2023-02-23T14:20:24;10.13;;;5.83;;
24279;SDS011;12395;42.808;23.408;2023-02-23T14:26:14;10.13;;;5.60;;
24279;SDS011;12395;42.808;23.408;2023-02-23T14:28:46;11.25;;;6.00;;
24279;SDS011;12395;42.808;23.408;2023-02-23T14:31:33;12.68;;;6.25;;
24279;SDS011;12395;42.808;23.408;2023-02-23T14:33:59;12.43;;;6.45;;
24279;SDS011;12395;42.808;23.408;2023-02-23T14:36:32;14.00;;;6.78;;
24279;SDS011;12395;42.808;23.408;2023-02-23T14:39:00;11.95;;;7.35;;
24279;SDS011;12395;42.808;23.408;2023-02-23T14:41:37;13.73;;;6.70;;
24279;SDS011;12395;42.808;23.408;2023-02-23T14:46:49;13.15;;;6.90;;
24279;SDS011;12395;42.808;23.408;2023-02-23T14:49:21;13.98;;;6.60;;
24279;SDS011;12395;42.808;23.408;2023-02-23T14:51:59;14.15;;;7.10;;
24279;SDS011;12395;42.808;23.408;2023-02-23T14:54:33;11.93;;;6.68;;
24279;SDS011;12395;42.808;23.408;2023-02-23T14:57:01;12.52;;;7.25;;
24279;SDS011;12395;42.808;23.408;2023-02-23T14:59:36;13.93;;;7.03;;
24279;SDS011;12395;42.808;23.408;2023-02-23T15:02:10;17.23;;;7.47;;
24279;SDS011;12395;42.808;23.408;2023-02-23T15:04:42;14.13;;;7.20;;
24279;SDS011;12395;42.808;23.408;2023-02-23T15:07:12;13.63;;;6.85;;
24279;SDS011;12395;42.808;23.408;2023-02-23T15:09:42;13.48;;;7.60;;
24279;SDS011;12395;42.808;23.408;2023-02-23T15:14:43;13.50;;;7.82;;
24279;SDS011;12395;42.808;23.408;2023-02-23T15:17:17;15.38;;;7.07;;
24279;SDS011;12395;42.808;23.408;2023-02-23T15:19:46;14.32;;;7.50;;
24279;SDS011;12395;42.808;23.408;2023-02-23T15:22:25;12.80;;;7.32;;
24279;SDS011;12395;42.808;23.408;2023-02-23T15:24:55;15.15;;;7.63;;
24279;SDS011;12395;42.808;23.408;2023-02-23T15:27:27;13.77;;;7.55;;
24279;SDS011;12395;42.808;23.408;2023-02-23T15:29:54;14.90;;;7.50;;
24279;SDS011;12395;42.808;23.408;2023-02-23T15:32:21;14.38;;;8.13;;
24279;SDS011;12395;42.808;23.408;2023-02-23T15:34:51;15.13;;;7.65;;
24279;SDS011;12395;42.808;23.408;2023-02-23T15:37:23;15.38;;;7.72;;
24279;SDS011;12395;42.808;23.408;2023-02-23T15:39:58;14.70;;;7.60;;
24279;SDS011;12395;42.808;23.408;2023-02-23T15:42:37;14.88;;;7.68;;
24279;SDS011;12395;42.808;23.408;2023-02-23T15:47:40;14.57;;;7.70;;
24279;SDS011;12395;42.808;23.408;2023-02-23T15:50:14;15.70;;;8.20;;
24279;SDS011;12395;42.808;23.408;2023-02-23T15:52:50;14.77;;;7.63;;
24279;SDS011;12395;42.808;23.408;2023-02-23T15:55:36;14.35;;;7.72;;
24279;SDS011;12395;42.808;23.408;2023-02-23T16:03:34;13.65;;;7.70;;
24279;SDS011;12395;42.808;23.408;2023-02-23T16:06:05;15.50;;;8.07;;
24279;SDS011;12395;42.808;23.408;2023-02-23T16:08:59;13.63;;;7.55;;
24279;SDS011;12395;42.808;23.408;2023-02-23T16:11:30;16.27;;;7.97;;
24279;SDS011;12395;42.808;23.408;2023-02-23T16:14:00;14.07;;;7.28;;
24279;SDS011;12395;42.808;23.408;2023-02-23T16:18:53;14.35;;;7.68;;
24279;SDS011;12395;42.808;23.408;2023-02-23T16:21:25;14.55;;;8.00;;
24279;SDS011;12395;42.808;23.408;2023-02-23T16:23:55;14.85;;;8.20;;
24279;SDS011;12395;42.808;23.408;2023-02-23T16:29:06;13.73;;;7.50;;
24279;SDS011;12395;42.808;23.408;2023-02-23T16:36:55;17.52;;;8.15;;
24279;SDS011;12395;42.808;23.408;2023-02-23T16:39:22;14.55;;;8.32;;
24279;SDS011;12395;42.808;23.408;2023-02-23T16:41:53;15.88;;;8.25;;
24279;SDS011;12395;42.808;23.408;2023-02-23T16:44:18;15.82;;;8.90;;
24279;SDS011;12395;42.808;23.408;2023-02-23T16:49:26;15.40;;;8.55;;
24279;SDS011;12395;42.808;23.408;2023-02-23T16:51:53;17.17;;;8.52;;
24279;SDS011;12395;42.808;23.408;2023-02-23T16:54:20;19.63;;;9.35;;
24279;SDS011;12395;42.808;23.408;2023-02-23T16:56:45;16.58;;;9.15;;
24279;SDS011;12395;42.808;23.408;2023-02-23T16:59:13;13.88;;;8.35;;
24279;SDS011;12395;42.808;23.408;2023-02-23T17:01:40;17.08;;;8.45;;
24279;SDS011;12395;42.808;23.408;2023-02-23T17:04:12;14.95;;;8.30;;
24279;SDS011;12395;42.808;23.408;2023-02-23T17:06:41;15.88;;;8.93;;
24279;SDS011;12395;42.808;23.408;2023-02-23T17:09:10;18.13;;;8.83;;
24279;SDS011;12395;42.808;23.408;2023-02-23T17:11:36;15.02;;;8.15;;
24279;SDS011;12395;42.808;23.408;2023-02-23T17:14:04;16.52;;;8.52;;
24279;SDS011;12395;42.808;23.408;2023-02-23T17:16:29;17.77;;;8.30;;
24279;SDS011;12395;42.808;23.408;2023-02-23T17:18:55;20.45;;;8.82;;
24279;SDS011;12395;42.808;23.408;2023-02-23T17:21:23;15.55;;;8.68;;
24279;SDS011;12395;42.808;23.408;2023-02-23T17:23:49;17.52;;;8.48;;
24279;SDS011;12395;42.808;23.408;2023-02-23T17:26:19;16.33;;;8.65;;
24279;SDS011;12395;42.808;23.408;2023-02-23T17:28:48;15.93;;;8.27;;
24279;SDS011;12395;42.808;23.408;2023-02-23T17:31:15;16.02;;;8.23;;
24279;SDS011;12395;42.808;23.408;2023-02-23T17:33:43;17.42;;;8.10;;
24279;SDS011;12395;42.808;23.408;2023-02-23T17:36:10;16.15;;;8.05;;
24279;SDS011;12395;42.808;23.408;2023-02-23T17:38:41;17.75;;;8.45;;
24279;SDS011;12395;42.808;23.408;2023-02-23T17:41:17;14.48;;;8.15;;
24279;SDS011;12395;42.808;23.408;2023-02-23T17:43:43;14.80;;;8.77;;